Terminal Aerodrome Forecast
Issued by NWS Albany, NY

Home | Current Version | Previous Version | Text Only | Print | Product List | Glossary On
Versions: 1 2 3 4 5 6 7 8 9 10 11 12 13 14 15 16
000
FTUS41 KALY 301738
TAFALB
TAF
KALB 301738Z 3018/3118 35004KT P6SM FEW045 BKN170 BKN260
     FM302200 VRB03KT P6SM VCSH SCT050 OVC100
     FM311000 VRB02KT 6SM -SHRA BR BKN025 OVC050
     FM311200 VRB04KT 2SM RA BR OVC007
     FM311500 09005KT 2SM -RA BR OVC015=

USA.gov is the U.S. government's official web portal to all federal, state and local government web resources and services.